createdAt,value
2023-05-04T00:02:09.668Z,3.43
2023-05-04T00:04:42.960Z,3.42
2023-05-04T00:07:15.301Z,3.41
2023-05-04T00:09:47.875Z,3.42
2023-05-04T00:12:20.421Z,3.37
2023-05-04T00:14:53.000Z,3.33
2023-05-04T00:17:25.343Z,3.25
2023-05-04T00:19:57.608Z,3.20
2023-05-04T00:22:31.670Z,3.15
2023-05-04T00:25:03.838Z,3.10
2023-05-04T00:27:36.293Z,3.06
2023-05-04T00:30:11.314Z,3.07
2023-05-04T00:32:43.526Z,3.07
2023-05-04T00:35:15.877Z,3.04
2023-05-04T00:37:48.138Z,3.02
2023-05-04T00:40:21.147Z,3.00
2023-05-04T00:42:53.287Z,2.96
2023-05-04T00:45:26.016Z,2.94
2023-05-04T00:47:59.165Z,2.91
2023-05-04T00:50:31.794Z,2.87
2023-05-04T00:53:08.778Z,2.87
2023-05-04T00:55:42.056Z,2.87
2023-05-04T00:58:14.359Z,2.84
2023-05-04T01:00:46.635Z,2.80
2023-05-04T01:03:19.881Z,2.77
2023-05-04T01:06:02.724Z,2.73
2023-05-04T01:08:37.270Z,2.72
2023-05-04T01:11:17.301Z,2.72
2023-05-04T01:13:51.356Z,2.69
2023-05-04T01:16:23.785Z,2.64
2023-05-04T01:18:57.446Z,2.62
2023-05-04T01:21:33.168Z,2.61
2023-05-04T01:24:08.378Z,2.59
2023-05-04T01:26:44.764Z,2.58
2023-05-04T01:29:26.448Z,2.54
2023-05-04T01:32:01.330Z,2.53
2023-05-04T01:34:33.684Z,2.48
2023-05-04T01:37:08.235Z,2.44
2023-05-04T01:39:41.690Z,2.44
2023-05-04T01:42:14.263Z,2.41
2023-05-04T01:44:48.402Z,2.39
2023-05-04T01:47:22.812Z,2.38
2023-05-04T01:49:55.292Z,2.35
2023-05-04T01:52:28.919Z,2.32
2023-05-04T01:55:01.087Z,2.29
2023-05-04T01:57:33.224Z,2.29
2023-05-04T02:00:06.240Z,2.27
2023-05-04T02:02:50.947Z,2.27
2023-05-04T02:05:24.377Z,2.26
2023-05-04T02:07:56.573Z,2.24
2023-05-04T02:10:28.908Z,2.24
2023-05-04T02:13:02.106Z,2.26
2023-05-04T02:15:34.967Z,2.23
2023-05-04T02:18:07.311Z,2.20
2023-05-04T02:20:39.460Z,2.18
2023-05-04T02:23:11.700Z,2.17
2023-05-04T02:25:43.955Z,2.14
2023-05-04T02:28:16.265Z,2.10
2023-05-04T02:30:48.754Z,2.10
2023-05-04T02:33:23.512Z,2.07
2023-05-04T02:35:55.729Z,2.06
2023-05-04T02:38:28.917Z,2.03
2023-05-04T02:41:02.120Z,2.04
2023-05-04T02:43:34.294Z,2.03
2023-05-04T02:46:09.257Z,1.99
2023-05-04T02:48:41.395Z,1.95
2023-05-04T02:51:13.613Z,1.92
2023-05-04T02:53:45.804Z,1.90
2023-05-04T02:56:17.973Z,1.88
2023-05-04T02:58:50.203Z,1.85
2023-05-04T03:01:22.515Z,1.82
2023-05-04T03:03:55.415Z,1.82
2023-05-04T03:06:28.019Z,1.83
2023-05-04T03:09:00.738Z,1.83
2023-05-04T03:11:32.915Z,1.82
2023-05-04T03:14:05.170Z,1.81
2023-05-04T03:16:37.647Z,1.80
2023-05-04T03:19:10.453Z,1.78
2023-05-04T03:21:43.179Z,1.75
2023-05-04T03:24:15.934Z,1.74
2023-05-04T03:26:48.503Z,1.72
2023-05-04T03:29:20.872Z,1.67
2023-05-04T03:31:53.741Z,1.65
2023-05-04T03:34:28.306Z,1.67
2023-05-04T03:37:04.425Z,1.70
2023-05-04T03:39:36.609Z,1.74
2023-05-04T03:42:09.216Z,1.77
2023-05-04T03:44:44.164Z,1.79
2023-05-04T03:47:16.353Z,1.80
2023-05-04T03:49:48.936Z,1.81
2023-05-04T03:52:21.120Z,1.82
2023-05-04T03:54:53.466Z,1.84
2023-05-04T03:57:25.891Z,1.85
2023-05-04T03:59:59.659Z,1.88
2023-05-04T04:02:33.017Z,1.91
2023-05-04T04:05:06.560Z,1.97
2023-05-04T04:07:39.716Z,2.01
2023-05-04T04:10:13.262Z,2.06
2023-05-04T04:12:45.593Z,2.09
2023-05-04T04:15:18.732Z,2.12
2023-05-04T04:17:51.044Z,2.17
2023-05-04T04:20:23.239Z,2.22
2023-05-04T04:22:55.400Z,2.26
2023-05-04T04:25:27.571Z,2.35
2023-05-04T04:27:59.783Z,2.43
2023-05-04T04:30:31.970Z,2.53
2023-05-04T04:33:04.369Z,2.62
2023-05-04T04:35:37.106Z,2.72
2023-05-04T04:38:09.882Z,2.80
2023-05-04T04:40:42.142Z,2.88
2023-05-04T04:43:14.331Z,2.97
2023-05-04T04:45:46.855Z,3.06
2023-05-04T04:48:21.490Z,3.16
2023-05-04T04:50:53.961Z,3.29
2023-05-04T04:53:26.099Z,3.42
2023-05-04T04:55:58.262Z,3.55
2023-05-04T04:58:30.258Z,3.71
2023-05-04T05:01:04.535Z,3.88
2023-05-04T05:03:36.758Z,4.07
2023-05-04T05:06:08.877Z,4.26
2023-05-04T05:08:41.842Z,4.46
2023-05-04T05:11:13.935Z,4.66
2023-05-04T05:13:45.959Z,4.88
2023-05-04T05:16:18.212Z,5.10
2023-05-04T05:18:50.821Z,5.29
2023-05-04T05:21:23.304Z,5.48
2023-05-04T05:23:55.413Z,5.70
2023-05-04T05:26:28.002Z,5.93
2023-05-04T05:29:00.141Z,6.14
2023-05-04T05:31:33.206Z,6.32
2023-05-04T05:34:08.337Z,6.50
2023-05-04T05:36:40.524Z,6.68
2023-05-04T05:39:12.631Z,6.86
2023-05-04T05:41:45.027Z,7.01
2023-05-04T05:44:17.112Z,7.21
2023-05-04T05:46:51.884Z,7.40
2023-05-04T05:49:24.351Z,7.62
2023-05-04T05:51:56.495Z,7.81
2023-05-04T05:54:30.577Z,8.01
2023-05-04T05:57:03.344Z,8.23
2023-05-04T05:59:35.359Z,8.41
2023-05-04T06:02:07.900Z,8.57
2023-05-04T06:04:42.897Z,8.75
2023-05-04T06:07:15.021Z,8.95
2023-05-04T06:09:47.038Z,9.13
2023-05-04T06:12:19.017Z,9.31
2023-05-04T06:14:52.401Z,9.48
2023-05-04T06:17:24.481Z,9.65
2023-05-04T06:19:56.828Z,9.83
2023-05-04T06:22:28.978Z,10.01
2023-05-04T06:25:05.312Z,10.19
2023-05-04T06:27:40.201Z,10.37
2023-05-04T06:30:14.131Z,10.55
2023-05-04T06:32:47.913Z,10.72
2023-05-04T06:35:20.328Z,10.89
2023-05-04T06:37:52.435Z,11.10
2023-05-04T06:40:25.564Z,11.31
2023-05-04T06:42:57.892Z,11.49
2023-05-04T06:45:30.114Z,11.64
2023-05-04T06:48:02.482Z,11.82
2023-05-04T06:50:35.957Z,11.98
2023-05-04T06:53:10.236Z,12.14
2023-05-04T06:55:43.350Z,12.32
2023-05-04T06:58:18.137Z,12.50
2023-05-04T07:00:50.222Z,12.66
2023-05-04T07:03:22.410Z,12.83
2023-05-04T07:05:54.538Z,12.98
2023-05-04T07:08:26.865Z,13.15
2023-05-04T07:10:58.928Z,13.31
2023-05-04T07:13:31.292Z,13.46
2023-05-04T07:16:03.983Z,13.59
2023-05-04T07:18:36.577Z,13.71
2023-05-04T07:21:26.660Z,13.84
2023-05-04T07:24:00.093Z,14.01
2023-05-04T07:26:32.309Z,14.15
2023-05-04T07:29:04.522Z,14.27
2023-05-04T07:31:36.981Z,14.35
2023-05-04T07:34:09.016Z,14.40
2023-05-04T07:36:43.167Z,14.50
2023-05-04T07:39:16.695Z,14.60
2023-05-04T07:41:51.699Z,14.67
2023-05-04T07:44:23.694Z,14.76
2023-05-04T07:46:55.779Z,14.85
2023-05-04T07:49:27.964Z,14.95
2023-05-04T07:52:00.167Z,15.02
2023-05-04T07:54:32.238Z,15.15
2023-05-04T07:57:06.108Z,15.29
2023-05-04T07:59:38.277Z,15.45
2023-05-04T08:02:10.520Z,15.51
2023-05-04T08:04:42.711Z,15.58
2023-05-04T08:07:16.548Z,15.70
2023-05-04T08:09:48.679Z,15.78
2023-05-04T08:12:20.814Z,15.82
2023-05-04T08:14:52.842Z,15.76
2023-05-04T08:17:25.212Z,15.73
2023-05-04T08:19:57.409Z,15.88
2023-05-04T08:22:30.442Z,16.04
2023-05-04T08:25:02.741Z,16.14
2023-05-04T08:27:35.371Z,16.25
2023-05-04T08:30:09.563Z,16.34
2023-05-04T08:32:41.660Z,16.40
2023-05-04T08:35:14.452Z,16.46
2023-05-04T08:37:46.576Z,16.50
2023-05-04T08:40:19.431Z,16.58
2023-05-04T08:42:52.634Z,16.61
2023-05-04T08:45:25.783Z,16.71
2023-05-04T08:47:57.855Z,16.79
2023-05-04T08:50:30.105Z,16.92
2023-05-04T08:53:04.130Z,16.99
2023-05-04T08:55:41.461Z,17.06
2023-05-04T08:58:15.598Z,17.17
2023-05-04T09:00:48.639Z,17.32
2023-05-04T09:03:21.613Z,17.41
2023-05-04T09:05:54.662Z,17.49
2023-05-04T09:08:26.897Z,17.53
2023-05-04T09:10:59.800Z,17.65
2023-05-04T09:13:34.110Z,17.68
2023-05-04T09:16:08.082Z,17.67
2023-05-04T09:18:42.728Z,17.72
2023-05-04T09:21:15.358Z,17.84
2023-05-04T09:23:52.472Z,17.88
2023-05-04T09:26:31.786Z,17.99
2023-05-04T09:29:15.614Z,18.08
2023-05-04T09:31:50.318Z,18.07
2023-05-04T09:34:22.570Z,18.13
2023-05-04T09:37:06.637Z,18.20
2023-05-04T09:39:38.770Z,18.25
2023-05-04T09:42:21.114Z,18.28
2023-05-04T09:45:08.320Z,18.34
2023-05-04T09:47:42.264Z,18.42
2023-05-04T09:50:21.068Z,18.42
2023-05-04T09:52:54.662Z,18.42
2023-05-04T09:55:28.260Z,18.54
2023-05-04T09:58:02.207Z,18.64
2023-05-04T10:00:34.550Z,18.67
2023-05-04T10:03:08.770Z,18.74
2023-05-04T10:05:44.006Z,18.78
2023-05-04T10:08:16.927Z,18.76
2023-05-04T10:10:49.469Z,18.83
2023-05-04T10:13:21.543Z,18.91
2023-05-04T10:16:07.471Z,18.97
2023-05-04T10:18:54.119Z,18.93
2023-05-04T10:21:38.256Z,18.94
2023-05-04T10:24:33.354Z,19.01
2023-05-04T10:27:10.411Z,19.04
2023-05-04T10:29:43.656Z,19.04
2023-05-04T10:32:23.096Z,19.06
2023-05-04T10:35:05.722Z,19.10
2023-05-04T10:37:38.714Z,19.18
2023-05-04T10:40:12.543Z,19.22
2023-05-04T10:42:45.536Z,19.20
2023-05-04T10:45:18.872Z,19.19
2023-05-04T10:47:59.910Z,19.18
2023-05-04T10:50:42.139Z,19.19
2023-05-04T10:53:15.712Z,19.23
2023-05-04T10:55:49.728Z,19.25
2023-05-04T10:58:30.624Z,19.32
2023-05-04T11:01:12.675Z,19.39
2023-05-04T11:03:45.080Z,19.47
2023-05-04T11:06:23.938Z,19.45
2023-05-04T11:09:06.389Z,19.53
2023-05-04T11:11:40.807Z,19.51
2023-05-04T11:14:21.970Z,19.46
2023-05-04T11:16:54.152Z,19.46
2023-05-04T11:19:26.211Z,19.47
2023-05-04T11:21:58.247Z,19.40
2023-05-04T11:24:37.858Z,19.37
2023-05-04T11:27:10.326Z,19.39
2023-05-04T11:29:42.406Z,19.47
2023-05-04T11:32:18.133Z,19.60
2023-05-04T11:34:50.306Z,19.73
2023-05-04T11:37:23.359Z,19.79
2023-05-04T11:39:56.140Z,19.87
2023-05-04T11:42:28.790Z,19.81
2023-05-04T11:45:01.357Z,19.77
2023-05-04T11:47:33.585Z,19.83
2023-05-04T11:50:08.165Z,19.94
2023-05-04T11:52:41.591Z,20.01
2023-05-04T11:55:25.568Z,20.13
2023-05-04T11:58:02.267Z,20.19
2023-05-04T12:00:42.308Z,20.18
2023-05-04T12:03:16.514Z,20.20
2023-05-04T12:05:51.569Z,20.28
2023-05-04T12:08:30.426Z,20.31
2023-05-04T12:11:21.733Z,20.32
2023-05-04T12:14:05.290Z,20.36
2023-05-04T12:16:39.349Z,20.35
2023-05-04T12:19:13.087Z,20.37
2023-05-04T12:21:53.777Z,20.38
2023-05-04T12:24:29.049Z,20.31
2023-05-04T12:27:02.130Z,20.20
2023-05-04T12:29:34.398Z,20.24
2023-05-04T12:32:08.930Z,20.42
2023-05-04T12:34:41.454Z,20.59
2023-05-04T12:37:13.668Z,20.69
2023-05-04T12:39:47.140Z,20.71
2023-05-04T12:42:19.280Z,20.70
2023-05-04T12:44:51.458Z,20.72
2023-05-04T12:47:24.857Z,20.72
2023-05-04T12:49:57.118Z,20.76
2023-05-04T12:52:32.162Z,20.80
2023-05-04T12:55:04.585Z,20.81
2023-05-04T12:57:37.653Z,20.85
2023-05-04T13:00:12.038Z,20.90
2023-05-04T13:02:44.570Z,20.87
2023-05-04T13:05:18.481Z,20.85
2023-05-04T13:07:52.697Z,20.88
2023-05-04T13:10:25.729Z,20.96
2023-05-04T13:12:58.333Z,21.02
2023-05-04T13:15:30.725Z,21.10
2023-05-04T13:18:03.225Z,21.16
2023-05-04T13:20:36.299Z,21.15
2023-05-04T13:23:08.801Z,21.19
2023-05-04T13:25:41.279Z,21.08
2023-05-04T13:28:13.514Z,20.99
2023-05-04T13:30:46.039Z,21.02
2023-05-04T13:33:28.620Z,21.13
2023-05-04T13:36:03.366Z,21.25
2023-05-04T13:38:35.519Z,21.27
2023-05-04T13:41:08.129Z,21.31
2023-05-04T13:43:40.538Z,21.35
2023-05-04T13:46:14.656Z,21.36
2023-05-04T13:48:46.915Z,21.36
2023-05-04T13:51:19.492Z,21.46
2023-05-04T13:53:51.749Z,21.55
2023-05-04T13:56:26.826Z,21.54
2023-05-04T13:58:59.020Z,21.51
2023-05-04T14:01:31.423Z,21.50
2023-05-04T14:04:04.057Z,21.56
2023-05-04T14:06:36.190Z,21.59
2023-05-04T14:09:08.597Z,21.55
2023-05-04T14:11:41.471Z,21.47
2023-05-04T14:14:13.952Z,21.36
2023-05-04T14:16:46.574Z,21.29
2023-05-04T14:19:25.588Z,21.23
2023-05-04T14:21:58.158Z,21.17
2023-05-04T14:24:30.735Z,21.11
2023-05-04T14:27:02.862Z,21.00
2023-05-04T14:29:39.572Z,20.90
2023-05-04T14:32:14.492Z,20.91
2023-05-04T14:34:52.100Z,20.96
2023-05-04T14:37:24.257Z,21.03
2023-05-04T14:39:56.412Z,20.98
2023-05-04T14:42:28.611Z,20.89
2023-05-04T14:45:02.302Z,20.81
2023-05-04T14:47:40.139Z,20.69
2023-05-04T14:50:16.004Z,20.64
2023-05-04T14:52:48.687Z,20.67
2023-05-04T14:55:20.938Z,20.66
2023-05-04T14:57:53.002Z,20.53
2023-05-04T15:00:25.653Z,20.44
2023-05-04T15:02:58.151Z,20.41
2023-05-04T15:05:32.627Z,20.40
2023-05-04T15:08:05.035Z,20.32
2023-05-04T15:10:37.440Z,20.19
2023-05-04T15:13:09.707Z,20.07
2023-05-04T15:15:43.129Z,19.92
2023-05-04T15:18:15.450Z,19.86
2023-05-04T15:20:49.998Z,19.87
2023-05-04T15:23:22.281Z,19.87
2023-05-04T15:25:54.541Z,19.84
2023-05-04T15:28:26.708Z,19.79
2023-05-04T15:31:00.662Z,19.79
2023-05-04T15:33:33.873Z,19.77
2023-05-04T15:36:09.250Z,19.74
2023-05-04T15:38:41.509Z,19.70
2023-05-04T15:41:14.353Z,19.66
2023-05-04T15:43:46.526Z,19.56
2023-05-04T15:46:19.846Z,19.52
2023-05-04T15:48:56.768Z,19.51
2023-05-04T15:51:29.793Z,19.46
2023-05-04T15:54:04.102Z,19.29
2023-05-04T15:56:36.546Z,19.21
2023-05-04T15:59:08.795Z,19.21
2023-05-04T16:01:41.426Z,19.22
2023-05-04T16:04:13.956Z,19.22
2023-05-04T16:06:48.843Z,19.20
2023-05-04T16:09:21.057Z,19.17
2023-05-04T16:11:53.154Z,19.17
2023-05-04T16:14:25.649Z,19.10
2023-05-04T16:16:57.955Z,19.03
2023-05-04T16:19:30.261Z,19.01
2023-05-04T16:22:03.282Z,19.00
2023-05-04T16:24:36.350Z,18.99
2023-05-04T16:27:08.845Z,18.98
2023-05-04T16:29:41.160Z,18.99
2023-05-04T16:32:13.281Z,18.98
2023-05-04T16:34:48.056Z,18.95
2023-05-04T16:37:23.321Z,18.89
2023-05-04T16:39:56.713Z,18.85
2023-05-04T16:42:28.976Z,18.80
2023-05-04T16:45:01.097Z,18.78
2023-05-04T16:47:33.331Z,18.76
2023-05-04T16:50:06.824Z,18.69
2023-05-04T16:52:39.892Z,18.61
2023-05-04T16:55:12.895Z,18.56
2023-05-04T16:57:45.143Z,18.50
2023-05-04T17:00:18.495Z,18.46
2023-05-04T17:02:50.935Z,18.42
2023-05-04T17:05:23.162Z,18.35
2023-05-04T17:07:55.458Z,18.24
2023-05-04T17:10:30.267Z,18.18
2023-05-04T17:13:02.976Z,18.14
2023-05-04T17:15:35.580Z,18.06
2023-05-04T17:18:08.081Z,17.96
2023-05-04T17:20:40.377Z,17.88
2023-05-04T17:23:12.467Z,17.70
2023-05-04T17:25:46.043Z,17.55
2023-05-04T17:28:18.336Z,17.43
2023-05-04T17:30:50.534Z,17.32
2023-05-04T17:33:22.798Z,17.19
2023-05-04T17:35:55.020Z,17.02
2023-05-04T17:38:27.257Z,16.89
2023-05-04T17:40:59.670Z,16.75
2023-05-04T17:43:31.893Z,16.61
2023-05-04T17:46:04.548Z,16.48
2023-05-04T17:48:36.930Z,16.31
2023-05-04T17:51:12.196Z,16.13
2023-05-04T17:53:44.426Z,15.98
2023-05-04T17:56:20.427Z,15.84
2023-05-04T17:58:53.130Z,15.71
2023-05-04T18:01:25.347Z,15.58
2023-05-04T18:03:58.259Z,15.43
2023-05-04T18:06:30.386Z,15.29
2023-05-04T18:09:06.235Z,15.16
2023-05-04T18:11:41.807Z,15.02
2023-05-04T18:14:14.102Z,14.87
2023-05-04T18:16:46.689Z,14.73
2023-05-04T18:19:24.869Z,14.60
2023-05-04T18:21:56.913Z,14.47
2023-05-04T18:24:29.161Z,14.35
2023-05-04T18:27:05.191Z,14.22
2023-05-04T18:29:37.377Z,14.08
2023-05-04T18:32:10.845Z,13.94
2023-05-04T18:34:43.683Z,13.82
2023-05-04T18:37:16.817Z,13.66
2023-05-04T18:39:48.947Z,13.51
2023-05-04T18:42:21.353Z,13.43
2023-05-04T18:44:55.226Z,13.35
2023-05-04T18:47:27.491Z,13.29
2023-05-04T18:50:01.009Z,13.22
2023-05-04T18:52:34.856Z,13.15
2023-05-04T18:55:08.041Z,13.07
2023-05-04T18:57:40.253Z,12.97
2023-05-04T19:00:14.227Z,12.88
2023-05-04T19:02:46.833Z,12.75
2023-05-04T19:05:32.037Z,12.68
2023-05-04T19:08:04.338Z,12.61
2023-05-04T19:10:36.607Z,12.54
2023-05-04T19:13:09.315Z,12.51
2023-05-04T19:15:41.482Z,12.44
2023-05-04T19:18:13.654Z,12.37
2023-05-04T19:20:45.975Z,12.32
2023-05-04T19:23:18.346Z,12.23
2023-05-04T19:25:50.988Z,12.16
2023-05-04T19:28:25.498Z,12.14
2023-05-04T19:30:58.623Z,12.10
2023-05-04T19:33:44.637Z,12.08
2023-05-04T19:36:20.415Z,12.03
2023-05-04T19:38:52.906Z,11.99
2023-05-04T19:41:27.482Z,11.96
2023-05-04T19:43:59.618Z,11.93
2023-05-04T19:46:32.061Z,11.88
2023-05-04T19:49:04.556Z,11.83
2023-05-04T19:51:36.749Z,11.79
2023-05-04T19:54:11.155Z,11.73
2023-05-04T19:56:43.883Z,11.66
2023-05-04T19:59:16.087Z,11.61
2023-05-04T20:01:48.373Z,11.59
2023-05-04T20:04:22.978Z,11.58
2023-05-04T20:06:55.181Z,11.53
2023-05-04T20:09:28.991Z,11.48
2023-05-04T20:12:03.449Z,11.45
2023-05-04T20:14:36.236Z,11.43
2023-05-04T20:17:08.477Z,11.37
2023-05-04T20:19:42.962Z,11.34
2023-05-04T20:22:15.452Z,11.32
2023-05-04T20:24:52.635Z,11.27
2023-05-04T20:27:24.799Z,11.24
2023-05-04T20:29:56.905Z,11.17
2023-05-04T20:32:30.578Z,11.15
2023-05-04T20:35:02.891Z,11.14
2023-05-04T20:37:35.138Z,11.09
2023-05-04T20:40:09.305Z,11.03
2023-05-04T20:42:44.161Z,10.97
2023-05-04T20:45:25.687Z,10.94
2023-05-04T20:47:58.186Z,10.89
2023-05-04T20:50:30.630Z,10.84
2023-05-04T20:53:03.086Z,10.78
2023-05-04T20:55:36.169Z,10.75
2023-05-04T20:58:08.285Z,10.71
2023-05-04T21:00:40.527Z,10.68
2023-05-04T21:03:13.032Z,10.67
2023-05-04T21:05:45.418Z,10.65
2023-05-04T21:08:19.951Z,10.61
2023-05-04T21:10:53.144Z,10.57
2023-05-04T21:13:25.495Z,10.52
2023-05-04T21:15:59.607Z,10.47
2023-05-04T21:18:31.940Z,10.46
2023-05-04T21:21:05.710Z,10.45
2023-05-04T21:23:37.879Z,10.41
2023-05-04T21:26:13.620Z,10.39
2023-05-04T21:28:46.565Z,10.39
2023-05-04T21:31:18.946Z,10.35
2023-05-04T21:33:52.211Z,10.27
2023-05-04T21:36:24.539Z,10.19
2023-05-04T21:38:56.815Z,10.15
2023-05-04T21:41:29.245Z,10.14
2023-05-04T21:44:04.605Z,10.10
2023-05-04T21:46:42.271Z,10.08
2023-05-04T21:49:14.533Z,10.07
2023-05-04T21:51:46.800Z,10.03
2023-05-04T21:54:18.997Z,10.00
2023-05-04T21:56:51.103Z,9.99
2023-05-04T21:59:23.267Z,9.98
2023-05-04T22:01:55.405Z,9.99
2023-05-04T22:04:27.634Z,10.01
2023-05-04T22:07:00.059Z,10.02
2023-05-04T22:09:32.462Z,10.03
2023-05-04T22:12:05.621Z,10.02
2023-05-04T22:14:38.563Z,10.02
2023-05-04T22:17:11.601Z,10.03
2023-05-04T22:19:46.315Z,10.00
2023-05-04T22:22:18.632Z,9.97
2023-05-04T22:24:51.003Z,9.94
2023-05-04T22:27:23.160Z,9.88
2023-05-04T22:29:55.656Z,9.83
2023-05-04T22:32:27.853Z,9.82
2023-05-04T22:35:00.445Z,9.85
2023-05-04T22:37:32.679Z,9.85
2023-05-04T22:40:07.504Z,9.84
2023-05-04T22:42:39.878Z,9.84
2023-05-04T22:45:15.039Z,9.84
2023-05-04T22:47:47.385Z,9.86
2023-05-04T22:50:19.754Z,9.87
2023-05-04T22:52:51.985Z,9.84
2023-05-04T22:55:24.225Z,9.80
2023-05-04T22:57:56.739Z,9.78
2023-05-04T23:00:28.974Z,9.77
2023-05-04T23:03:01.589Z,9.76
2023-05-04T23:05:33.911Z,9.75
2023-05-04T23:08:07.674Z,9.73
2023-05-04T23:10:45.059Z,9.72
2023-05-04T23:13:17.256Z,9.69
2023-05-04T23:15:49.538Z,9.65
2023-05-04T23:18:22.089Z,9.62
2023-05-04T23:20:54.293Z,9.57
2023-05-04T23:23:26.633Z,9.52
2023-05-04T23:25:58.868Z,9.47
2023-05-04T23:28:31.641Z,9.42
2023-05-04T23:31:04.018Z,9.38
2023-05-04T23:33:36.141Z,9.35
2023-05-04T23:36:08.823Z,9.30
2023-05-04T23:38:41.030Z,9.24
2023-05-04T23:41:13.491Z,9.19
2023-05-04T23:43:46.817Z,9.12
2023-05-04T23:46:18.939Z,9.04
2023-05-04T23:48:51.227Z,8.99
2023-05-04T23:51:23.350Z,8.93
2023-05-04T23:53:55.810Z,8.89
2023-05-04T23:56:28.154Z,8.86
2023-05-04T23:59:00.287Z,8.83
